createdAt,value
2017-10-12T00:00:05.878Z,86.8
2017-10-12T00:05:10.837Z,86.3
2017-10-12T00:10:02.669Z,86.3
2017-10-12T00:15:35.913Z,86.2
2017-10-12T00:20:08.008Z,86.3
2017-10-12T00:25:05.296Z,86.2
2017-10-12T00:30:20.406Z,86.2
2017-10-12T00:35:06.072Z,86
2017-10-12T00:40:03.049Z,86
2017-10-12T00:45:10.934Z,85.8
2017-10-12T00:50:08.386Z,85.7
2017-10-12T00:55:05.714Z,85.8
2017-10-12T01:00:10.699Z,85.9
2017-10-12T01:05:02.994Z,85.9
2017-10-12T01:10:03.473Z,86.2
2017-10-12T01:15:05.252Z,86.8
2017-10-12T01:20:02.657Z,86.8
2017-10-12T01:25:10.992Z,87.1
2017-10-12T01:30:05.861Z,87.7
2017-10-12T01:35:05.701Z,87.8
2017-10-12T01:40:27.942Z,88.5
2017-10-12T01:45:10.523Z,88.6
2017-10-12T01:50:05.354Z,89
2017-10-12T01:55:02.715Z,89
2017-10-12T02:00:05.178Z,89.1
2017-10-12T02:05:03.441Z,89.1
2017-10-12T02:10:02.836Z,89.6
2017-10-12T02:15:05.744Z,90.1
2017-10-12T02:20:05.618Z,90.1
2017-10-12T02:25:02.903Z,90.1
2017-10-12T02:30:18.037Z,90.4
2017-10-12T02:35:10.187Z,90.4
2017-10-12T02:40:08.037Z,90.4
2017-10-12T02:45:10.923Z,90.3
2017-10-12T02:50:05.718Z,90.5
2017-10-12T02:55:10.569Z,90.6
2017-10-12T03:00:05.398Z,90.7
2017-10-12T03:05:02.744Z,90.7
2017-10-12T03:10:05.951Z,90.9
2017-10-12T03:15:05.916Z,90.8
2017-10-12T03:20:05.909Z,90.8
2017-10-12T03:25:03.068Z,90.8
2017-10-12T03:30:05.524Z,90.6
2017-10-12T03:35:12.888Z,90.5
2017-10-12T03:40:03.079Z,90.5
2017-10-12T03:45:03.386Z,90.4
2017-10-12T03:50:10.876Z,90
2017-10-12T03:55:03.050Z,90
2017-10-12T04:00:07.985Z,89.6
2017-10-12T04:05:02.684Z,89.6
2017-10-12T04:10:05.712Z,89.7
2017-10-12T04:15:05.870Z,89.3
2017-10-12T04:20:08.371Z,89.3
2017-10-12T04:25:03.065Z,89.3
2017-10-12T04:30:08.003Z,89.3
2017-10-12T04:35:05.282Z,89.2
2017-10-12T04:40:05.721Z,89.9
2017-10-12T04:45:05.965Z,90.1
2017-10-12T04:50:03.338Z,90.1
2017-10-12T04:55:03.177Z,90.1
2017-10-12T05:00:13.192Z,89.9
2017-10-12T05:05:07.955Z,90
2017-10-12T05:10:18.615Z,89.7
2017-10-12T05:15:12.753Z,90.3
2017-10-12T05:20:06.141Z,90
2017-10-12T05:25:03.303Z,90
2017-10-12T05:35:05.521Z,90.2
2017-10-12T05:40:05.958Z,90.3
2017-10-12T05:45:05.232Z,90.1
2017-10-12T05:50:02.636Z,90.1
2017-10-12T05:55:03.469Z,90.1
2017-10-12T06:00:03.334Z,90.1
2017-10-12T06:05:03.165Z,90.6
2017-10-12T06:10:03.562Z,91.5
2017-10-12T06:15:18.056Z,92.4
2017-10-12T06:20:07.760Z,92.5
2017-10-12T06:25:11.106Z,92.6
2017-10-12T06:30:05.971Z,92.9
2017-10-12T06:35:05.821Z,93.1
2017-10-12T06:40:10.312Z,93.2
2017-10-12T06:45:08.027Z,93.2
2017-10-12T06:50:02.880Z,93.2
2017-10-12T06:55:07.689Z,93.3
2017-10-12T07:00:06.048Z,93.4
2017-10-12T07:05:05.837Z,93.3
2017-10-12T07:10:10.333Z,93.7
2017-10-12T07:15:03.054Z,93.7
2017-10-12T07:20:10.477Z,95.3
2017-10-12T07:25:15.395Z,96
2017-10-12T07:30:03.553Z,95.9
2017-10-12T07:35:03.368Z,96
2017-10-12T07:40:17.989Z,96
2017-10-12T07:45:05.624Z,95.6
2017-10-12T07:50:28.290Z,95.6
2017-10-12T07:55:02.794Z,95.6
2017-10-12T08:00:05.229Z,94.9
2017-10-12T08:05:06.041Z,93.6
2017-10-12T08:10:05.580Z,92.5
2017-10-12T08:15:05.707Z,92
2017-10-12T08:20:05.566Z,91.5
2017-10-12T08:25:10.417Z,91.3
2017-10-12T08:30:17.927Z,91.4
2017-10-12T08:35:10.185Z,90.9
2017-10-12T08:40:03.003Z,90.9
2017-10-12T08:45:05.824Z,88.8
2017-10-12T08:50:08.239Z,87.5
2017-10-12T08:55:03.058Z,87.4
2017-10-12T09:00:20.648Z,86.7
2017-10-12T09:05:05.343Z,86
2017-10-12T09:10:05.798Z,83.5
2017-10-12T09:15:08.628Z,81.1
2017-10-12T09:20:11.100Z,81.3
2017-10-12T09:25:03.368Z,81.3
2017-10-12T09:30:08.373Z,81.3
2017-10-12T09:35:08.213Z,81.9
2017-10-12T09:40:10.251Z,82.1
2017-10-12T09:45:10.596Z,81.6
2017-10-12T09:50:18.064Z,80.5
2017-10-12T09:55:07.868Z,80.2
2017-10-12T10:00:02.784Z,80.2
2017-10-12T10:05:02.634Z,80.5
2017-10-12T10:10:03.185Z,80.5
2017-10-12T10:15:08.492Z,83.4
2017-10-12T10:20:05.911Z,83.2
2017-10-12T10:25:05.714Z,83.2
2017-10-12T10:30:05.562Z,81.4
2017-10-12T10:35:05.410Z,81.1
2017-10-12T10:40:05.910Z,81.8
2017-10-12T10:45:03.523Z,81.8
2017-10-12T10:50:06.005Z,78.5
2017-10-12T10:55:03.251Z,78.3
2017-10-12T11:00:03.174Z,76.8
2017-10-12T11:05:02.981Z,75.2
2017-10-12T11:10:08.428Z,73.3
2017-10-12T11:15:02.712Z,73.4
2017-10-12T11:20:03.547Z,74.5
2017-10-12T11:25:03.399Z,73
2017-10-12T11:30:10.849Z,71.8
2017-10-12T11:35:13.220Z,70.4
2017-10-12T11:40:28.930Z,68.5
2017-10-12T11:45:02.808Z,68.6
2017-10-12T11:50:02.799Z,68.5
2017-10-12T11:55:03.544Z,67.9
2017-10-12T12:00:11.067Z,66
2017-10-12T12:05:03.321Z,66
2017-10-12T12:10:20.439Z,65.2
2017-10-12T12:15:08.109Z,64
2017-10-12T12:20:02.988Z,64.1
2017-10-12T12:25:05.332Z,62.2
2017-10-12T12:30:02.968Z,62.3
2017-10-12T12:35:07.657Z,61.4
2017-10-12T12:40:13.129Z,60.9
2017-10-12T12:45:10.902Z,61.7
2017-10-12T12:50:03.236Z,61.6
2017-10-12T12:55:23.409Z,59.5
2017-10-12T13:00:05.652Z,60.6
2017-10-12T13:05:10.565Z,61.5
2017-10-12T13:10:08.604Z,62.6
2017-10-12T13:15:02.801Z,62.6
2017-10-12T13:20:02.799Z,60.9
2017-10-12T13:25:02.685Z,62.5
2017-10-12T13:30:02.624Z,61.7
2017-10-12T13:35:02.581Z,60.1
2017-10-12T13:40:05.577Z,57.6
2017-10-12T13:45:03.431Z,57.6
2017-10-12T13:50:10.983Z,59.5
2017-10-12T13:55:03.327Z,59.4
2017-10-12T14:00:08.304Z,60.4
2017-10-12T14:05:03.151Z,60.3
2017-10-12T14:10:03.583Z,62.3
2017-10-12T14:15:05.501Z,60.6
2017-10-12T14:20:07.916Z,60.7
2017-10-12T14:25:20.517Z,59.9
2017-10-12T14:30:02.735Z,59.9
2017-10-12T14:35:02.668Z,59.7
2017-10-12T14:40:03.239Z,59.5
2017-10-12T14:45:08.519Z,59.3
2017-10-12T14:50:03.437Z,59.4
2017-10-12T14:55:08.466Z,58.8
2017-10-12T15:00:03.275Z,58.7
2017-10-12T15:05:08.303Z,58.3
2017-10-12T15:10:22.924Z,59
2017-10-12T15:15:08.176Z,59.3
2017-10-12T15:20:13.283Z,7.1
2017-10-12T15:25:02.985Z,58.2
2017-10-12T15:30:02.928Z,59.8
2017-10-12T15:35:10.461Z,62.7
2017-10-12T15:40:03.454Z,62.7
2017-10-12T15:45:02.665Z,63.2
2017-10-12T15:50:03.608Z,64.2
2017-10-12T15:55:08.505Z,64.3
2017-10-12T16:00:10.990Z,64
2017-10-12T16:05:05.725Z,65.3
2017-10-12T16:10:06.179Z,65.3
2017-10-12T16:15:10.781Z,64.6
2017-10-12T16:20:02.793Z,64.6
2017-10-12T16:25:07.718Z,64.2
2017-10-12T16:30:06.101Z,64.1
2017-10-12T16:35:10.916Z,64.1
2017-10-12T16:40:05.288Z,64.4
2017-10-12T16:45:08.148Z,65.2
2017-10-12T16:50:05.508Z,65.8
2017-10-12T16:55:05.394Z,66.3
2017-10-12T17:00:02.734Z,66.3
2017-10-12T17:05:03.597Z,67.3
2017-10-12T17:10:10.568Z,68.4
2017-10-12T17:15:08.431Z,68.9
2017-10-12T17:20:18.406Z,69.4
2017-10-12T17:25:05.586Z,69.7
2017-10-12T17:30:02.944Z,69.7
2017-10-12T17:35:05.282Z,71.3
2017-10-12T17:40:03.193Z,71.2
2017-10-12T17:45:26.191Z,72.3
2017-10-12T17:50:03.310Z,72.4
2017-10-12T17:55:03.257Z,73.1
2017-10-12T18:05:20.748Z,75
2017-10-12T18:10:03.212Z,75.1
2017-10-12T18:15:08.450Z,75.7
2017-10-12T18:20:08.261Z,75.8
2017-10-12T18:25:05.430Z,76.1
2017-10-12T18:30:02.782Z,76
2017-10-12T18:35:08.585Z,75.1
2017-10-12T18:40:10.507Z,74.5
2017-10-12T18:45:23.359Z,74.7
2017-10-12T18:50:07.988Z,74.5
2017-10-12T18:55:02.622Z,74.3
2017-10-12T19:00:18.557Z,73.9
2017-10-12T19:05:03.087Z,73.9
2017-10-12T19:10:06.032Z,74.1
2017-10-12T19:15:07.668Z,74.2
2017-10-12T19:20:36.436Z,74.5
2017-10-12T19:25:08.298Z,74.7
2017-10-12T19:30:02.880Z,74.7
2017-10-12T19:35:02.751Z,74.8
2017-10-12T19:40:08.121Z,76.1
2017-10-12T19:45:03.229Z,76.1
2017-10-12T19:50:03.071Z,76.5
2017-10-12T19:55:07.829Z,76.5
2017-10-12T20:00:13.841Z,76.5
2017-10-12T20:05:03.276Z,76.4
2017-10-12T20:10:05.181Z,77.3
2017-10-12T20:15:05.313Z,77.4
2017-10-12T20:20:06.113Z,77.7
2017-10-12T20:25:30.636Z,77.5
2017-10-12T20:30:05.524Z,77.3
2017-10-12T20:35:05.215Z,77.8
2017-10-12T20:40:18.129Z,78
2017-10-12T20:45:05.681Z,78.5
2017-10-12T20:50:10.510Z,78.4
2017-10-12T21:00:05.983Z,79
2017-10-12T21:05:13.216Z,78.7
2017-10-12T21:10:13.652Z,78.8
2017-10-12T21:15:08.571Z,78.7
2017-10-12T21:20:08.336Z,78.4
2017-10-12T21:25:02.932Z,78.4
2017-10-12T21:30:10.395Z,78.7
2017-10-12T21:35:18.541Z,78.7
2017-10-12T21:40:15.312Z,79.3
2017-10-12T21:45:02.752Z,79.3
2017-10-12T21:50:06.079Z,79.7
2017-10-12T21:55:05.771Z,80
2017-10-12T22:00:18.271Z,79.7
2017-10-12T22:05:02.605Z,79.7
2017-10-12T22:10:12.993Z,80.6
2017-10-12T22:15:05.502Z,80.7
2017-10-12T22:20:07.834Z,80.6
2017-10-12T22:25:10.988Z,81.2
2017-10-12T22:30:03.197Z,81.2
2017-10-12T22:35:02.838Z,81
2017-10-12T22:40:15.835Z,81.9
2017-10-12T22:45:05.718Z,82.1
2017-10-12T22:50:02.936Z,82.2
2017-10-12T22:55:23.742Z,82.4
2017-10-12T23:00:28.687Z,82.7
2017-10-12T23:05:05.426Z,82.8
2017-10-12T23:10:31.173Z,82.9
2017-10-12T23:15:05.874Z,83.1
2017-10-12T23:20:05.615Z,83.2
2017-10-12T23:25:02.765Z,83.2
2017-10-12T23:30:06.132Z,83.1
2017-10-12T23:35:05.687Z,83.4
2017-10-12T23:40:06.075Z,83.4
2017-10-12T23:45:13.646Z,83.8
2017-10-12T23:50:21.033Z,84.1
2017-10-12T23:55:05.449Z,84.4
